sensor_id;sensor_type;location;lat;lon;timestamp;temperature;humidity
39315;DHT22;28703;44.412;11.918;2023-05-20T00:01:38;16.50;99.90
39315;DHT22;28703;44.412;11.918;2023-05-20T00:04:04;16.50;99.90
39315;DHT22;28703;44.412;11.918;2023-05-20T00:06:30;16.40;99.90
39315;DHT22;28703;44.412;11.918;2023-05-20T00:08:56;16.40;99.90
39315;DHT22;28703;44.412;11.918;2023-05-20T00:11:24;16.30;99.90
39315;DHT22;28703;44.412;11.918;2023-05-20T00:13:50;16.40;99.90
39315;DHT22;28703;44.412;11.918;2023-05-20T00:16:21;16.30;99.90
39315;DHT22;28703;44.412;11.918;2023-05-20T00:18:49;16.30;99.90
39315;DHT22;28703;44.412;11.918;2023-05-20T00:21:15;16.30;99.90
39315;DHT22;28703;44.412;11.918;2023-05-20T00:23:41;16.30;99.90
39315;DHT22;28703;44.412;11.918;2023-05-20T00:26:07;16.30;99.90
39315;DHT22;28703;44.412;11.918;2023-05-20T00:28:34;16.30;99.90
39315;DHT22;28703;44.412;11.918;2023-05-20T00:31:00;16.30;99.90
39315;DHT22;28703;44.412;11.918;2023-05-20T00:33:26;16.30;99.90
39315;DHT22;28703;44.412;11.918;2023-05-20T00:35:52;16.30;99.90
39315;DHT22;28703;44.412;11.918;2023-05-20T00:38:17;16.30;99.90
39315;DHT22;28703;44.412;11.918;2023-05-20T00:40:43;16.30;99.90
39315;DHT22;28703;44.412;11.918;2023-05-20T00:43:09;16.30;99.90
39315;DHT22;28703;44.412;11.918;2023-05-20T00:45:36;16.30;99.90
39315;DHT22;28703;44.412;11.918;2023-05-20T00:48:03;16.30;99.90
39315;DHT22;28703;44.412;11.918;2023-05-20T00:50:36;16.30;99.90
39315;DHT22;28703;44.412;11.918;2023-05-20T00:53:02;16.30;99.90
39315;DHT22;28703;44.412;11.918;2023-05-20T00:55:28;16.20;99.90
39315;DHT22;28703;44.412;11.918;2023-05-20T00:57:54;16.20;99.90
39315;DHT22;28703;44.412;11.918;2023-05-20T01:00:20;16.20;99.90
39315;DHT22;28703;44.412;11.918;2023-05-20T01:02:48;16.20;99.90
39315;DHT22;28703;44.412;11.918;2023-05-20T01:05:14;16.20;99.90
39315;DHT22;28703;44.412;11.918;2023-05-20T01:07:40;16.20;99.90
39315;DHT22;28703;44.412;11.918;2023-05-20T01:10:07;16.20;99.90
39315;DHT22;28703;44.412;11.918;2023-05-20T01:12:47;16.10;99.90
39315;DHT22;28703;44.412;11.918;2023-05-20T01:15:15;16.20;99.90
39315;DHT22;28703;44.412;11.918;2023-05-20T01:17:43;16.10;99.90
39315;DHT22;28703;44.412;11.918;2023-05-20T01:20:13;16.10;99.90
39315;DHT22;28703;44.412;11.918;2023-05-20T01:22:55;16.10;99.90
39315;DHT22;28703;44.412;11.918;2023-05-20T01:25:22;16.10;99.90
39315;DHT22;28703;44.412;11.918;2023-05-20T01:27:51;16.10;99.90
39315;DHT22;28703;44.412;11.918;2023-05-20T01:30:17;16.00;99.90
39315;DHT22;28703;44.412;11.918;2023-05-20T01:32:53;16.00;99.90
39315;DHT22;28703;44.412;11.918;2023-05-20T01:35:19;16.10;99.90
39315;DHT22;28703;44.412;11.918;2023-05-20T01:37:49;16.00;99.90
39315;DHT22;28703;44.412;11.918;2023-05-20T01:40:17;16.00;99.90
39315;DHT22;28703;44.412;11.918;2023-05-20T01:42:43;16.00;99.90
39315;DHT22;28703;44.412;11.918;2023-05-20T01:45:13;16.00;99.90
39315;DHT22;28703;44.412;11.918;2023-05-20T01:47:39;16.00;99.90
39315;DHT22;28703;44.412;11.918;2023-05-20T01:50:05;15.90;99.90
39315;DHT22;28703;44.412;11.918;2023-05-20T01:52:32;15.90;99.90
39315;DHT22;28703;44.412;11.918;2023-05-20T01:54:58;16.00;99.90
39315;DHT22;28703;44.412;11.918;2023-05-20T01:57:25;15.90;99.90
39315;DHT22;28703;44.412;11.918;2023-05-20T01:59:52;15.90;99.90
39315;DHT22;28703;44.412;11.918;2023-05-20T02:02:18;15.80;99.90
39315;DHT22;28703;44.412;11.918;2023-05-20T02:04:49;15.80;99.90
39315;DHT22;28703;44.412;11.918;2023-05-20T02:07:15;15.90;99.90
39315;DHT22;28703;44.412;11.918;2023-05-20T02:09:41;15.80;99.90
39315;DHT22;28703;44.412;11.918;2023-05-20T02:12:08;15.80;99.90
39315;DHT22;28703;44.412;11.918;2023-05-20T02:14:34;15.80;99.90
39315;DHT22;28703;44.412;11.918;2023-05-20T02:17:02;15.80;99.90
39315;DHT22;28703;44.412;11.918;2023-05-20T02:19:28;15.80;99.90
39315;DHT22;28703;44.412;11.918;2023-05-20T02:21:54;15.80;99.90
39315;DHT22;28703;44.412;11.918;2023-05-20T02:24:20;15.80;99.90
39315;DHT22;28703;44.412;11.918;2023-05-20T02:26:47;15.80;99.90
39315;DHT22;28703;44.412;11.918;2023-05-20T02:29:16;15.80;99.90
39315;DHT22;28703;44.412;11.918;2023-05-20T02:31:42;15.80;99.90
39315;DHT22;28703;44.412;11.918;2023-05-20T02:34:11;15.70;99.90
39315;DHT22;28703;44.412;11.918;2023-05-20T02:36:38;15.70;99.90
39315;DHT22;28703;44.412;11.918;2023-05-20T02:39:04;15.70;99.90
39315;DHT22;28703;44.412;11.918;2023-05-20T02:41:30;15.80;99.90
39315;DHT22;28703;44.412;11.918;2023-05-20T02:43:56;15.70;99.90
39315;DHT22;28703;44.412;11.918;2023-05-20T02:46:22;15.80;99.90
39315;DHT22;28703;44.412;11.918;2023-05-20T02:48:48;15.70;99.90
39315;DHT22;28703;44.412;11.918;2023-05-20T02:51:16;15.80;99.90
39315;DHT22;28703;44.412;11.918;2023-05-20T02:53:45;15.80;99.90
39315;DHT22;28703;44.412;11.918;2023-05-20T02:56:12;15.70;99.90
39315;DHT22;28703;44.412;11.918;2023-05-20T02:58:38;15.80;99.90
39315;DHT22;28703;44.412;11.918;2023-05-20T03:01:04;15.70;99.90
39315;DHT22;28703;44.412;11.918;2023-05-20T03:03:32;15.80;99.90
39315;DHT22;28703;44.412;11.918;2023-05-20T03:05:58;15.80;99.90
39315;DHT22;28703;44.412;11.918;2023-05-20T03:08:24;15.70;99.90
39315;DHT22;28703;44.412;11.918;2023-05-20T03:10:50;15.70;99.90
39315;DHT22;28703;44.412;11.918;2023-05-20T03:13:16;15.70;99.90
39315;DHT22;28703;44.412;11.918;2023-05-20T03:15:42;15.70;99.90
39315;DHT22;28703;44.412;11.918;2023-05-20T03:18:11;15.70;99.90
39315;DHT22;28703;44.412;11.918;2023-05-20T03:20:38;15.70;99.90
39315;DHT22;28703;44.412;11.918;2023-05-20T03:23:07;15.60;99.90
39315;DHT22;28703;44.412;11.918;2023-05-20T03:25:38;15.70;99.90
39315;DHT22;28703;44.412;11.918;2023-05-20T03:28:08;15.70;99.90
39315;DHT22;28703;44.412;11.918;2023-05-20T03:30:39;15.60;99.90
39315;DHT22;28703;44.412;11.918;2023-05-20T03:33:05;15.60;99.90
39315;DHT22;28703;44.412;11.918;2023-05-20T03:35:33;15.60;99.90
39315;DHT22;28703;44.412;11.918;2023-05-20T03:38:02;15.60;99.90
39315;DHT22;28703;44.412;11.918;2023-05-20T03:40:29;15.60;99.90
39315;DHT22;28703;44.412;11.918;2023-05-20T03:42:55;15.60;99.90
39315;DHT22;28703;44.412;11.918;2023-05-20T03:45:23;15.60;99.90
39315;DHT22;28703;44.412;11.918;2023-05-20T03:48:03;15.60;99.90
39315;DHT22;28703;44.412;11.918;2023-05-20T03:50:31;15.60;99.90
39315;DHT22;28703;44.412;11.918;2023-05-20T03:52:59;15.60;99.90
39315;DHT22;28703;44.412;11.918;2023-05-20T03:55:28;15.60;99.90
39315;DHT22;28703;44.412;11.918;2023-05-20T03:57:54;15.60;99.90
39315;DHT22;28703;44.412;11.918;2023-05-20T04:00:23;15.70;99.90
39315;DHT22;28703;44.412;11.918;2023-05-20T04:02:49;15.70;99.90
39315;DHT22;28703;44.412;11.918;2023-05-20T04:05:17;15.60;99.90
39315;DHT22;28703;44.412;11.918;2023-05-20T04:07:47;15.60;99.90
39315;DHT22;28703;44.412;11.918;2023-05-20T04:10:23;15.60;99.90
39315;DHT22;28703;44.412;11.918;2023-05-20T04:12:58;15.60;99.90
39315;DHT22;28703;44.412;11.918;2023-05-20T04:15:36;15.60;99.90
39315;DHT22;28703;44.412;11.918;2023-05-20T04:18:11;15.60;99.90
39315;DHT22;28703;44.412;11.918;2023-05-20T04:20:42;15.50;99.90
39315;DHT22;28703;44.412;11.918;2023-05-20T04:23:09;15.50;99.90
39315;DHT22;28703;44.412;11.918;2023-05-20T04:25:41;15.50;99.90
39315;DHT22;28703;44.412;11.918;2023-05-20T04:28:11;15.60;99.90
39315;DHT22;28703;44.412;11.918;2023-05-20T04:30:38;15.60;99.90
39315;DHT22;28703;44.412;11.918;2023-05-20T04:33:06;15.50;99.90
39315;DHT22;28703;44.412;11.918;2023-05-20T04:35:33;15.50;99.90
39315;DHT22;28703;44.412;11.918;2023-05-20T04:38:04;15.50;99.90
39315;DHT22;28703;44.412;11.918;2023-05-20T04:40:37;15.60;99.90
39315;DHT22;28703;44.412;11.918;2023-05-20T04:43:03;15.60;99.90
39315;DHT22;28703;44.412;11.918;2023-05-20T04:45:32;15.60;99.90
39315;DHT22;28703;44.412;11.918;2023-05-20T04:48:08;15.60;99.90
39315;DHT22;28703;44.412;11.918;2023-05-20T04:50:38;15.60;99.90
39315;DHT22;28703;44.412;11.918;2023-05-20T04:53:06;15.60;99.90
39315;DHT22;28703;44.412;11.918;2023-05-20T04:55:33;15.60;99.90
39315;DHT22;28703;44.412;11.918;2023-05-20T04:58:11;15.60;99.90
39315;DHT22;28703;44.412;11.918;2023-05-20T05:00:51;15.60;99.90
39315;DHT22;28703;44.412;11.918;2023-05-20T05:03:17;15.60;99.90
39315;DHT22;28703;44.412;11.918;2023-05-20T05:06:02;15.60;99.90
39315;DHT22;28703;44.412;11.918;2023-05-20T05:08:51;15.60;99.90
39315;DHT22;28703;44.412;11.918;2023-05-20T05:11:18;15.60;99.90
39315;DHT22;28703;44.412;11.918;2023-05-20T05:13:45;15.60;99.90
39315;DHT22;28703;44.412;11.918;2023-05-20T05:16:11;15.60;99.90
39315;DHT22;28703;44.412;11.918;2023-05-20T05:18:38;15.60;99.90
39315;DHT22;28703;44.412;11.918;2023-05-20T05:21:07;15.60;99.90
39315;DHT22;28703;44.412;11.918;2023-05-20T05:23:35;15.70;99.90
39315;DHT22;28703;44.412;11.918;2023-05-20T05:26:01;15.60;99.90
39315;DHT22;28703;44.412;11.918;2023-05-20T05:28:30;15.70;99.90
39315;DHT22;28703;44.412;11.918;2023-05-20T05:30:59;15.70;99.90
39315;DHT22;28703;44.412;11.918;2023-05-20T05:33:30;15.70;99.90
39315;DHT22;28703;44.412;11.918;2023-05-20T05:35:59;15.70;99.90
39315;DHT22;28703;44.412;11.918;2023-05-20T05:38:26;15.70;99.90
39315;DHT22;28703;44.412;11.918;2023-05-20T05:40:53;15.80;99.90
39315;DHT22;28703;44.412;11.918;2023-05-20T05:43:20;15.80;99.90
39315;DHT22;28703;44.412;11.918;2023-05-20T05:45:49;15.80;99.90
39315;DHT22;28703;44.412;11.918;2023-05-20T05:48:19;15.80;99.90
39315;DHT22;28703;44.412;11.918;2023-05-20T05:50:49;15.80;99.90
39315;DHT22;28703;44.412;11.918;2023-05-20T05:53:17;15.80;99.90
39315;DHT22;28703;44.412;11.918;2023-05-20T05:55:47;15.90;99.90
39315;DHT22;28703;44.412;11.918;2023-05-20T05:58:17;15.80;99.90
39315;DHT22;28703;44.412;11.918;2023-05-20T06:00:44;15.80;99.90
39315;DHT22;28703;44.412;11.918;2023-05-20T06:03:22;15.80;99.90
39315;DHT22;28703;44.412;11.918;2023-05-20T06:05:56;15.80;99.90
39315;DHT22;28703;44.412;11.918;2023-05-20T06:08:26;15.80;99.90
39315;DHT22;28703;44.412;11.918;2023-05-20T06:10:55;15.80;99.90
39315;DHT22;28703;44.412;11.918;2023-05-20T06:13:27;15.80;99.90
39315;DHT22;28703;44.412;11.918;2023-05-20T06:15:55;15.80;99.90
39315;DHT22;28703;44.412;11.918;2023-05-20T06:18:27;15.80;99.90
39315;DHT22;28703;44.412;11.918;2023-05-20T06:21:03;15.80;99.90
39315;DHT22;28703;44.412;11.918;2023-05-20T06:23:42;15.80;99.90
39315;DHT22;28703;44.412;11.918;2023-05-20T06:26:11;15.90;99.90
39315;DHT22;28703;44.412;11.918;2023-05-20T06:28:46;15.90;99.90
39315;DHT22;28703;44.412;11.918;2023-05-20T06:31:22;15.90;99.90
39315;DHT22;28703;44.412;11.918;2023-05-20T06:33:51;15.90;99.90
39315;DHT22;28703;44.412;11.918;2023-05-20T06:36:26;15.90;99.90
39315;DHT22;28703;44.412;11.918;2023-05-20T06:39:00;15.90;99.90
39315;DHT22;28703;44.412;11.918;2023-05-20T06:41:29;15.90;99.90
39315;DHT22;28703;44.412;11.918;2023-05-20T06:43:56;15.90;99.90
39315;DHT22;28703;44.412;11.918;2023-05-20T06:46:53;15.90;99.90
39315;DHT22;28703;44.412;11.918;2023-05-20T06:49:23;15.90;99.90
39315;DHT22;28703;44.412;11.918;2023-05-20T06:51:50;15.90;99.90
39315;DHT22;28703;44.412;11.918;2023-05-20T06:54:20;15.90;99.90
39315;DHT22;28703;44.412;11.918;2023-05-20T06:56:47;15.90;99.90
39315;DHT22;28703;44.412;11.918;2023-05-20T06:59:16;15.90;99.90
39315;DHT22;28703;44.412;11.918;2023-05-20T07:01:43;15.90;99.90
39315;DHT22;28703;44.412;11.918;2023-05-20T07:04:09;15.90;99.90
39315;DHT22;28703;44.412;11.918;2023-05-20T07:06:42;15.90;99.90
39315;DHT22;28703;44.412;11.918;2023-05-20T07:09:10;15.90;99.90
39315;DHT22;28703;44.412;11.918;2023-05-20T07:11:40;15.90;99.90
39315;DHT22;28703;44.412;11.918;2023-05-20T07:14:13;15.90;99.90
39315;DHT22;28703;44.412;11.918;2023-05-20T07:16:41;15.90;99.90
39315;DHT22;28703;44.412;11.918;2023-05-20T07:19:11;15.90;99.90
39315;DHT22;28703;44.412;11.918;2023-05-20T07:21:39;15.90;99.90
39315;DHT22;28703;44.412;11.918;2023-05-20T07:24:25;15.90;99.90
39315;DHT22;28703;44.412;11.918;2023-05-20T07:26:53;16.00;99.90
39315;DHT22;28703;44.412;11.918;2023-05-20T07:29:23;16.00;99.90
39315;DHT22;28703;44.412;11.918;2023-05-20T07:31:49;16.00;99.90
39315;DHT22;28703;44.412;11.918;2023-05-20T07:34:18;16.00;99.90
39315;DHT22;28703;44.412;11.918;2023-05-20T07:36:54;16.00;99.90
39315;DHT22;28703;44.412;11.918;2023-05-20T07:39:27;16.10;99.90
39315;DHT22;28703;44.412;11.918;2023-05-20T07:42:06;16.10;99.90
39315;DHT22;28703;44.412;11.918;2023-05-20T11:04:08;18.20;99.90
39315;DHT22;28703;44.412;11.918;2023-05-20T11:06:49;18.20;99.90
39315;DHT22;28703;44.412;11.918;2023-05-20T11:09:20;18.40;99.90
39315;DHT22;28703;44.412;11.918;2023-05-20T11:11:46;18.40;99.90
39315;DHT22;28703;44.412;11.918;2023-05-20T11:14:13;18.40;99.90
39315;DHT22;28703;44.412;11.918;2023-05-20T11:16:43;18.50;99.90
39315;DHT22;28703;44.412;11.918;2023-05-20T11:19:16;18.60;99.90
39315;DHT22;28703;44.412;11.918;2023-05-20T11:21:48;18.60;99.90
39315;DHT22;28703;44.412;11.918;2023-05-20T11:24:23;18.70;99.90
39315;DHT22;28703;44.412;11.918;2023-05-20T11:26:59;18.70;99.90
39315;DHT22;28703;44.412;11.918;2023-05-20T11:29:27;18.70;99.90
39315;DHT22;28703;44.412;11.918;2023-05-20T11:32:01;18.80;99.90
39315;DHT22;28703;44.412;11.918;2023-05-20T11:45:47;18.70;99.90
39315;DHT22;28703;44.412;11.918;2023-05-20T11:48:23;18.60;99.90
39315;DHT22;28703;44.412;11.918;2023-05-20T11:50:55;18.60;99.90
39315;DHT22;28703;44.412;11.918;2023-05-20T11:53:22;18.60;99.90
39315;DHT22;28703;44.412;11.918;2023-05-20T11:55:56;18.60;99.90
39315;DHT22;28703;44.412;11.918;2023-05-20T11:58:25;18.60;99.90
39315;DHT22;28703;44.412;11.918;2023-05-20T12:00:54;18.60;99.90
39315;DHT22;28703;44.412;11.918;2023-05-20T12:14:28;18.60;99.90
39315;DHT22;28703;44.412;11.918;2023-05-20T12:16:54;18.60;99.90
39315;DHT22;28703;44.412;11.918;2023-05-20T12:19:21;18.60;99.90
39315;DHT22;28703;44.412;11.918;2023-05-20T12:21:48;18.60;99.90
39315;DHT22;28703;44.412;11.918;2023-05-20T12:24:14;18.70;99.90
39315;DHT22;28703;44.412;11.918;2023-05-20T12:26:47;18.70;99.90
39315;DHT22;28703;44.412;11.918;2023-05-20T12:29:18;18.80;99.90
39315;DHT22;28703;44.412;11.918;2023-05-20T12:31:44;18.80;99.90
39315;DHT22;28703;44.412;11.918;2023-05-20T12:34:10;18.80;99.90
39315;DHT22;28703;44.412;11.918;2023-05-20T12:36:36;18.90;99.90
39315;DHT22;28703;44.412;11.918;2023-05-20T12:39:06;18.90;99.90
39315;DHT22;28703;44.412;11.918;2023-05-20T12:41:36;18.90;99.90
